sensor_id;sensor_type;location;lat;lon;timestamp;temperature;humidity
59307;DHT22;47983;53.016;-2.260;2022-09-17T00:01:01;6.50;99.90
59307;DHT22;47983;53.016;-2.260;2022-09-17T00:03:31;6.40;99.90
59307;DHT22;47983;53.016;-2.260;2022-09-17T00:06:01;6.40;99.90
59307;DHT22;47983;53.016;-2.260;2022-09-17T00:08:29;6.40;99.90
59307;DHT22;47983;53.016;-2.260;2022-09-17T00:10:57;6.30;99.90
59307;DHT22;47983;53.016;-2.260;2022-09-17T00:13:24;6.30;99.90
59307;DHT22;47983;53.016;-2.260;2022-09-17T00:15:51;6.30;99.90
59307;DHT22;47983;53.016;-2.260;2022-09-17T00:18:20;6.30;99.90
59307;DHT22;47983;53.016;-2.260;2022-09-17T00:20:48;6.20;99.90
59307;DHT22;47983;53.016;-2.260;2022-09-17T00:23:15;6.20;99.90
59307;DHT22;47983;53.016;-2.260;2022-09-17T00:25:43;6.20;99.90
59307;DHT22;47983;53.016;-2.260;2022-09-17T00:28:11;6.10;99.90
59307;DHT22;47983;53.016;-2.260;2022-09-17T00:30:40;6.10;99.90
59307;DHT22;47983;53.016;-2.260;2022-09-17T00:33:12;6.10;99.90
59307;DHT22;47983;53.016;-2.260;2022-09-17T00:35:40;6.10;99.90
59307;DHT22;47983;53.016;-2.260;2022-09-17T00:38:07;6.00;99.90
59307;DHT22;47983;53.016;-2.260;2022-09-17T00:40:35;6.00;99.90
59307;DHT22;47983;53.016;-2.260;2022-09-17T00:43:03;6.00;99.90
59307;DHT22;47983;53.016;-2.260;2022-09-17T00:45:31;6.00;99.90
59307;DHT22;47983;53.016;-2.260;2022-09-17T00:47:59;5.90;99.90
59307;DHT22;47983;53.016;-2.260;2022-09-17T00:50:29;5.90;99.90
59307;DHT22;47983;53.016;-2.260;2022-09-17T00:53:01;5.80;99.90
59307;DHT22;47983;53.016;-2.260;2022-09-17T00:55:32;5.80;99.90
59307;DHT22;47983;53.016;-2.260;2022-09-17T00:58:01;5.80;99.90
59307;DHT22;47983;53.016;-2.260;2022-09-17T01:00:30;5.80;99.90
59307;DHT22;47983;53.016;-2.260;2022-09-17T01:02:57;5.70;99.90
59307;DHT22;47983;53.016;-2.260;2022-09-17T01:05:43;5.70;99.90
59307;DHT22;47983;53.016;-2.260;2022-09-17T01:13:36;5.70;99.90
59307;DHT22;47983;53.016;-2.260;2022-09-17T01:21:28;5.60;99.90
59307;DHT22;47983;53.016;-2.260;2022-09-17T01:24:00;5.60;99.90
59307;DHT22;47983;53.016;-2.260;2022-09-17T01:31:55;5.70;99.90
59307;DHT22;47983;53.016;-2.260;2022-09-17T01:34:27;5.70;99.90
59307;DHT22;47983;53.016;-2.260;2022-09-17T01:37:03;5.70;99.90
59307;DHT22;47983;53.016;-2.260;2022-09-17T01:44:40;5.90;99.90
59307;DHT22;47983;53.016;-2.260;2022-09-17T01:49:47;6.00;99.90
59307;DHT22;47983;53.016;-2.260;2022-09-17T01:52:16;6.00;99.90
59307;DHT22;47983;53.016;-2.260;2022-09-17T01:54:46;6.00;99.90
59307;DHT22;47983;53.016;-2.260;2022-09-17T01:57:17;6.10;99.90
59307;DHT22;47983;53.016;-2.260;2022-09-17T01:59:48;6.00;99.90
59307;DHT22;47983;53.016;-2.260;2022-09-17T02:05:31;6.00;99.90
59307;DHT22;47983;53.016;-2.260;2022-09-17T02:07:39;6.00;99.90
59307;DHT22;47983;53.016;-2.260;2022-09-17T02:10:09;5.90;99.90
59307;DHT22;47983;53.016;-2.260;2022-09-17T02:12:40;5.80;99.90
59307;DHT22;47983;53.016;-2.260;2022-09-17T02:15:10;5.80;99.90
59307;DHT22;47983;53.016;-2.260;2022-09-17T02:17:42;5.70;99.90
59307;DHT22;47983;53.016;-2.260;2022-09-17T02:20:11;5.60;99.90
59307;DHT22;47983;53.016;-2.260;2022-09-17T02:22:42;5.60;99.90
59307;DHT22;47983;53.016;-2.260;2022-09-17T02:25:30;5.50;99.90
59307;DHT22;47983;53.016;-2.260;2022-09-17T02:28:00;5.50;99.90
59307;DHT22;47983;53.016;-2.260;2022-09-17T02:30:29;5.40;99.90
59307;DHT22;47983;53.016;-2.260;2022-09-17T02:32:58;5.40;99.90
59307;DHT22;47983;53.016;-2.260;2022-09-17T02:35:26;5.30;99.90
59307;DHT22;47983;53.016;-2.260;2022-09-17T02:37:54;5.30;99.90
59307;DHT22;47983;53.016;-2.260;2022-09-17T02:40:21;5.30;99.90
59307;DHT22;47983;53.016;-2.260;2022-09-17T02:53:36;5.10;99.90
59307;DHT22;47983;53.016;-2.260;2022-09-17T03:01:13;4.90;99.90
59307;DHT22;47983;53.016;-2.260;2022-09-17T03:03:42;4.90;99.90
59307;DHT22;47983;53.016;-2.260;2022-09-17T03:06:10;4.90;99.90
59307;DHT22;47983;53.016;-2.260;2022-09-17T03:08:39;4.90;99.90
59307;DHT22;47983;53.016;-2.260;2022-09-17T03:11:07;4.90;99.90
59307;DHT22;47983;53.016;-2.260;2022-09-17T03:13:35;4.80;99.90
59307;DHT22;47983;53.016;-2.260;2022-09-17T03:16:02;4.90;99.90
59307;DHT22;47983;53.016;-2.260;2022-09-17T03:18:30;4.80;99.90
59307;DHT22;47983;53.016;-2.260;2022-09-17T03:20:58;4.80;99.90
59307;DHT22;47983;53.016;-2.260;2022-09-17T03:23:25;4.80;99.90
59307;DHT22;47983;53.016;-2.260;2022-09-17T03:25:54;4.70;99.90
59307;DHT22;47983;53.016;-2.260;2022-09-17T03:28:21;4.70;99.90
59307;DHT22;47983;53.016;-2.260;2022-09-17T03:30:49;4.70;99.90
59307;DHT22;47983;53.016;-2.260;2022-09-17T03:33:16;4.60;99.90
59307;DHT22;47983;53.016;-2.260;2022-09-17T03:35:43;4.60;99.90
59307;DHT22;47983;53.016;-2.260;2022-09-17T03:38:11;4.60;99.90
59307;DHT22;47983;53.016;-2.260;2022-09-17T03:40:39;4.60;99.90
59307;DHT22;47983;53.016;-2.260;2022-09-17T03:43:07;4.50;99.90
59307;DHT22;47983;53.016;-2.260;2022-09-17T03:45:34;4.50;99.90
59307;DHT22;47983;53.016;-2.260;2022-09-17T03:48:02;4.50;99.90
59307;DHT22;47983;53.016;-2.260;2022-09-17T03:50:29;4.50;99.90
59307;DHT22;47983;53.016;-2.260;2022-09-17T03:52:56;4.50;99.90
59307;DHT22;47983;53.016;-2.260;2022-09-17T03:55:24;4.50;99.90
59307;DHT22;47983;53.016;-2.260;2022-09-17T03:57:51;4.50;99.90
59307;DHT22;47983;53.016;-2.260;2022-09-17T04:00:18;4.40;99.90
59307;DHT22;47983;53.016;-2.260;2022-09-17T04:02:46;4.40;99.90
59307;DHT22;47983;53.016;-2.260;2022-09-17T04:05:13;4.40;99.90
59307;DHT22;47983;53.016;-2.260;2022-09-17T04:07:41;4.40;99.90
59307;DHT22;47983;53.016;-2.260;2022-09-17T04:10:08;4.40;99.90
59307;DHT22;47983;53.016;-2.260;2022-09-17T04:12:36;4.40;99.90
59307;DHT22;47983;53.016;-2.260;2022-09-17T04:15:03;4.30;99.90
59307;DHT22;47983;53.016;-2.260;2022-09-17T04:17:30;4.30;99.90
59307;DHT22;47983;53.016;-2.260;2022-09-17T04:19:58;4.30;99.90
59307;DHT22;47983;53.016;-2.260;2022-09-17T04:22:25;4.20;99.90
59307;DHT22;47983;53.016;-2.260;2022-09-17T04:24:53;4.20;99.90
59307;DHT22;47983;53.016;-2.260;2022-09-17T04:27:20;4.20;99.90
59307;DHT22;47983;53.016;-2.260;2022-09-17T04:29:47;4.20;99.90
59307;DHT22;47983;53.016;-2.260;2022-09-17T04:32:15;4.20;99.90
59307;DHT22;47983;53.016;-2.260;2022-09-17T04:34:42;4.10;99.90
59307;DHT22;47983;53.016;-2.260;2022-09-17T04:37:10;4.10;99.90
59307;DHT22;47983;53.016;-2.260;2022-09-17T04:39:37;4.10;99.90
59307;DHT22;47983;53.016;-2.260;2022-09-17T04:42:04;4.10;99.90
59307;DHT22;47983;53.016;-2.260;2022-09-17T04:44:32;4.10;99.90
59307;DHT22;47983;53.016;-2.260;2022-09-17T04:46:59;4.10;99.90
59307;DHT22;47983;53.016;-2.260;2022-09-17T04:49:27;4.10;99.90
59307;DHT22;47983;53.016;-2.260;2022-09-17T04:51:57;4.10;99.90
59307;DHT22;47983;53.016;-2.260;2022-09-17T04:54:24;4.10;99.90
59307;DHT22;47983;53.016;-2.260;2022-09-17T04:56:52;4.00;99.90
59307;DHT22;47983;53.016;-2.260;2022-09-17T04:59:19;4.10;99.90
59307;DHT22;47983;53.016;-2.260;2022-09-17T05:01:46;4.10;99.90
59307;DHT22;47983;53.016;-2.260;2022-09-17T05:04:15;4.00;99.90
59307;DHT22;47983;53.016;-2.260;2022-09-17T05:06:43;4.00;99.90
59307;DHT22;47983;53.016;-2.260;2022-09-17T05:09:10;4.00;99.90
59307;DHT22;47983;53.016;-2.260;2022-09-17T05:11:38;4.00;99.90
59307;DHT22;47983;53.016;-2.260;2022-09-17T05:14:05;4.00;99.90
59307;DHT22;47983;53.016;-2.260;2022-09-17T05:16:33;4.00;99.90
59307;DHT22;47983;53.016;-2.260;2022-09-17T05:19:01;3.90;99.90
59307;DHT22;47983;53.016;-2.260;2022-09-17T05:21:28;3.90;99.90
59307;DHT22;47983;53.016;-2.260;2022-09-17T05:23:56;3.90;99.90
59307;DHT22;47983;53.016;-2.260;2022-09-17T05:26:23;3.80;99.90
59307;DHT22;47983;53.016;-2.260;2022-09-17T05:28:51;3.80;99.90
59307;DHT22;47983;53.016;-2.260;2022-09-17T05:31:18;3.80;99.90
59307;DHT22;47983;53.016;-2.260;2022-09-17T05:33:46;3.80;99.90
59307;DHT22;47983;53.016;-2.260;2022-09-17T05:36:13;3.80;99.90
59307;DHT22;47983;53.016;-2.260;2022-09-17T05:38:41;3.80;99.90
59307;DHT22;47983;53.016;-2.260;2022-09-17T05:41:09;3.80;99.90
59307;DHT22;47983;53.016;-2.260;2022-09-17T05:43:36;3.80;99.90
59307;DHT22;47983;53.016;-2.260;2022-09-17T05:46:04;3.80;99.90
59307;DHT22;47983;53.016;-2.260;2022-09-17T05:48:32;3.80;99.90
59307;DHT22;47983;53.016;-2.260;2022-09-17T05:51:00;3.80;99.90
59307;DHT22;47983;53.016;-2.260;2022-09-17T05:53:27;3.70;99.90
59307;DHT22;47983;53.016;-2.260;2022-09-17T05:55:55;3.70;99.90
59307;DHT22;47983;53.016;-2.260;2022-09-17T05:58:23;3.70;99.90
59307;DHT22;47983;53.016;-2.260;2022-09-17T06:00:51;3.70;99.90
59307;DHT22;47983;53.016;-2.260;2022-09-17T06:03:19;3.70;99.90
59307;DHT22;47983;53.016;-2.260;2022-09-17T06:05:51;3.70;99.90
59307;DHT22;47983;53.016;-2.260;2022-09-17T06:08:20;3.70;99.90
59307;DHT22;47983;53.016;-2.260;2022-09-17T06:10:48;3.70;99.90
59307;DHT22;47983;53.016;-2.260;2022-09-17T06:13:16;3.70;99.90
59307;DHT22;47983;53.016;-2.260;2022-09-17T06:15:51;3.70;99.90
59307;DHT22;47983;53.016;-2.260;2022-09-17T06:18:19;3.70;99.90
59307;DHT22;47983;53.016;-2.260;2022-09-17T06:20:53;3.70;99.90
59307;DHT22;47983;53.016;-2.260;2022-09-17T06:23:21;3.70;99.90
59307;DHT22;47983;53.016;-2.260;2022-09-17T06:25:57;3.70;99.90
59307;DHT22;47983;53.016;-2.260;2022-09-17T06:28:25;3.70;99.90
59307;DHT22;47983;53.016;-2.260;2022-09-17T06:30:53;3.80;99.90
59307;DHT22;47983;53.016;-2.260;2022-09-17T06:33:22;3.80;99.90
59307;DHT22;47983;53.016;-2.260;2022-09-17T06:35:59;3.80;99.90
59307;DHT22;47983;53.016;-2.260;2022-09-17T06:38:27;3.80;99.90
59307;DHT22;47983;53.016;-2.260;2022-09-17T06:40:56;3.90;99.90
59307;DHT22;47983;53.016;-2.260;2022-09-17T06:43:24;4.00;99.90
59307;DHT22;47983;53.016;-2.260;2022-09-17T06:45:55;4.10;99.90
59307;DHT22;47983;53.016;-2.260;2022-09-17T06:48:23;4.10;99.90
59307;DHT22;47983;53.016;-2.260;2022-09-17T06:50:51;4.20;99.90
59307;DHT22;47983;53.016;-2.260;2022-09-17T06:53:21;4.30;99.90
59307;DHT22;47983;53.016;-2.260;2022-09-17T06:55:48;4.30;99.90
59307;DHT22;47983;53.016;-2.260;2022-09-17T06:58:16;4.40;99.90
59307;DHT22;47983;53.016;-2.260;2022-09-17T07:00:43;4.50;99.90
59307;DHT22;47983;53.016;-2.260;2022-09-17T07:03:11;4.60;99.90
59307;DHT22;47983;53.016;-2.260;2022-09-17T07:05:39;4.60;99.90
59307;DHT22;47983;53.016;-2.260;2022-09-17T07:08:09;4.80;99.90
59307;DHT22;47983;53.016;-2.260;2022-09-17T07:10:37;4.90;99.90
59307;DHT22;47983;53.016;-2.260;2022-09-17T07:13:04;5.10;99.90
59307;DHT22;47983;53.016;-2.260;2022-09-17T07:15:31;5.30;99.90
59307;DHT22;47983;53.016;-2.260;2022-09-17T07:17:59;5.40;99.90
59307;DHT22;47983;53.016;-2.260;2022-09-17T07:20:28;5.40;99.90
59307;DHT22;47983;53.016;-2.260;2022-09-17T07:22:56;5.60;99.90
59307;DHT22;47983;53.016;-2.260;2022-09-17T07:25:24;5.70;99.90
59307;DHT22;47983;53.016;-2.260;2022-09-17T07:27:54;5.80;99.90
59307;DHT22;47983;53.016;-2.260;2022-09-17T07:30:22;6.00;99.90
59307;DHT22;47983;53.016;-2.260;2022-09-17T07:32:50;6.00;99.90
59307;DHT22;47983;53.016;-2.260;2022-09-17T07:35:18;6.20;99.90
59307;DHT22;47983;53.016;-2.260;2022-09-17T07:37:45;6.30;99.90
59307;DHT22;47983;53.016;-2.260;2022-09-17T07:40:13;6.40;99.90
59307;DHT22;47983;53.016;-2.260;2022-09-17T07:42:41;6.60;99.90
59307;DHT22;47983;53.016;-2.260;2022-09-17T07:45:08;6.80;99.90
59307;DHT22;47983;53.016;-2.260;2022-09-17T07:47:39;6.80;99.90
59307;DHT22;47983;53.016;-2.260;2022-09-17T07:50:07;7.00;99.90
59307;DHT22;47983;53.016;-2.260;2022-09-17T07:52:35;7.10;99.90
59307;DHT22;47983;53.016;-2.260;2022-09-17T07:55:02;7.30;99.90
59307;DHT22;47983;53.016;-2.260;2022-09-17T07:57:30;7.40;99.90
59307;DHT22;47983;53.016;-2.260;2022-09-17T07:59:57;7.60;99.90
59307;DHT22;47983;53.016;-2.260;2022-09-17T08:02:25;7.70;99.90
59307;DHT22;47983;53.016;-2.260;2022-09-17T08:04:54;7.80;99.90
59307;DHT22;47983;53.016;-2.260;2022-09-17T08:07:22;7.90;99.90
59307;DHT22;47983;53.016;-2.260;2022-09-17T08:09:50;8.10;99.90
59307;DHT22;47983;53.016;-2.260;2022-09-17T08:12:17;8.20;99.90
59307;DHT22;47983;53.016;-2.260;2022-09-17T08:14:45;8.30;99.90
59307;DHT22;47983;53.016;-2.260;2022-09-17T08:17:12;8.40;99.90
59307;DHT22;47983;53.016;-2.260;2022-09-17T08:19:40;8.50;99.90
59307;DHT22;47983;53.016;-2.260;2022-09-17T08:22:07;8.60;99.90
59307;DHT22;47983;53.016;-2.260;2022-09-17T08:24:34;8.70;99.90
59307;DHT22;47983;53.016;-2.260;2022-09-17T08:27:03;8.80;99.90
59307;DHT22;47983;53.016;-2.260;2022-09-17T08:29:31;8.90;99.90
59307;DHT22;47983;53.016;-2.260;2022-09-17T08:32:02;9.00;99.90
59307;DHT22;47983;53.016;-2.260;2022-09-17T08:34:30;9.10;99.90
59307;DHT22;47983;53.016;-2.260;2022-09-17T08:36:58;9.10;99.90
59307;DHT22;47983;53.016;-2.260;2022-09-17T08:39:25;9.20;99.90
59307;DHT22;47983;53.016;-2.260;2022-09-17T08:44:25;9.40;99.90
59307;DHT22;47983;53.016;-2.260;2022-09-17T08:46:57;9.60;99.90
59307;DHT22;47983;53.016;-2.260;2022-09-17T08:49:33;9.60;99.90
59307;DHT22;47983;53.016;-2.260;2022-09-17T09:00:17;10.00;99.90
59307;DHT22;47983;53.016;-2.260;2022-09-17T09:07:43;10.30;99.90
59307;DHT22;47983;53.016;-2.260;2022-09-17T09:10:19;10.40;99.90
59307;DHT22;47983;53.016;-2.260;2022-09-17T09:12:49;10.50;99.90
59307;DHT22;47983;53.016;-2.260;2022-09-17T09:17:45;10.70;99.90
59307;DHT22;47983;53.016;-2.260;2022-09-17T09:23:06;10.90;99.90
59307;DHT22;47983;53.016;-2.260;2022-09-17T09:25:39;11.00;99.90
59307;DHT22;47983;53.016;-2.260;2022-09-17T09:33:32;11.40;99.90
59307;DHT22;47983;53.016;-2.260;2022-09-17T09:36:04;11.50;99.90
59307;DHT22;47983;53.016;-2.260;2022-09-17T09:38:33;11.60;99.90
59307;DHT22;47983;53.016;-2.260;2022-09-17T09:41:07;11.70;99.90
59307;DHT22;47983;53.016;-2.260;2022-09-17T09:43:43;11.80;99.90
59307;DHT22;47983;53.016;-2.260;2022-09-17T10:02:47;12.60;99.90
59307;DHT22;47983;53.016;-2.260;2022-09-17T10:05:18;12.70;99.90
59307;DHT22;47983;53.016;-2.260;2022-09-17T10:07:46;12.80;99.90
59307;DHT22;47983;53.016;-2.260;2022-09-17T10:10:13;12.90;99.90
59307;DHT22;47983;53.016;-2.260;2022-09-17T10:12:41;13.00;99.90
59307;DHT22;47983;53.016;-2.260;2022-09-17T10:15:25;13.10;99.90
59307;DHT22;47983;53.016;-2.260;2022-09-17T10:20:55;13.30;99.90
59307;DHT22;47983;53.016;-2.260;2022-09-17T10:23:24;13.40;99.90
59307;DHT22;47983;53.016;-2.260;2022-09-17T10:25:51;13.50;99.90
59307;DHT22;47983;53.016;-2.260;2022-09-17T10:28:35;13.60;99.90
59307;DHT22;47983;53.016;-2.260;2022-09-17T10:31:05;13.70;99.90
59307;DHT22;47983;53.016;-2.260;2022-09-17T10:33:49;13.90;99.90
59307;DHT22;47983;53.016;-2.260;2022-09-17T10:36:33;14.00;99.90
59307;DHT22;47983;53.016;-2.260;2022-09-17T10:41:54;14.30;99.90
59307;DHT22;47983;53.016;-2.260;2022-09-17T10:44:22;14.40;99.90
59307;DHT22;47983;53.016;-2.260;2022-09-17T10:46:50;14.50;99.90
59307;DHT22;47983;53.016;-2.260;2022-09-17T10:51:48;14.60;98.50
59307;DHT22;47983;53.016;-2.260;2022-09-17T10:56:45;14.80;98.00
59307;DHT22;47983;53.016;-2.260;2022-09-17T11:04:34;14.90;96.30
59307;DHT22;47983;53.016;-2.260;2022-09-17T11:07:38;15.00;96.60
59307;DHT22;47983;53.016;-2.260;2022-09-17T11:10:03;15.00;95.80
59307;DHT22;47983;53.016;-2.260;2022-09-17T11:15:27;15.20;95.70
59307;DHT22;47983;53.016;-2.260;2022-09-17T11:18:07;15.30;96.10
59307;DHT22;47983;53.016;-2.260;2022-09-17T11:26:07;15.70;96.20
59307;DHT22;47983;53.016;-2.260;2022-09-17T11:33:41;16.30;94.90
59307;DHT22;47983;53.016;-2.260;2022-09-17T11:39:08;16.70;94.30
59307;DHT22;47983;53.016;-2.260;2022-09-17T11:41:39;16.80;93.40
59307;DHT22;47983;53.016;-2.260;2022-09-17T11:44:22;16.90;93.40
59307;DHT22;47983;53.016;-2.260;2022-09-17T11:47:28;17.20;93.50
59307;DHT22;47983;53.016;-2.260;2022-09-17T11:49:49;17.40;93.30
59307;DHT22;47983;53.016;-2.260;2022-09-17T11:52:23;17.70;92.80
59307;DHT22;47983;53.016;-2.260;2022-09-17T11:54:57;17.90;91.60
59307;DHT22;47983;53.016;-2.260;2022-09-17T11:57:30;18.20;92.20
59307;DHT22;47983;53.016;-2.260;2022-09-17T12:00:11;18.50;92.40
59307;DHT22;47983;53.016;-2.260;2022-09-17T12:05:17;19.10;91.70
59307;DHT22;47983;53.016;-2.260;2022-09-17T12:15:31;19.90;87.40
59307;DHT22;47983;53.016;-2.260;2022-09-17T12:20:59;20.10;85.60
59307;DHT22;47983;53.016;-2.260;2022-09-17T12:23:34;20.20;87.30
59307;DHT22;47983;53.016;-2.260;2022-09-17T12:31:20;20.10;85.60
59307;DHT22;47983;53.016;-2.260;2022-09-17T12:33:54;20.20;83.70
59307;DHT22;47983;53.016;-2.260;2022-09-17T12:36:34;20.40;82.20
59307;DHT22;47983;53.016;-2.260;2022-09-17T12:39:13;20.40;81.50
59307;DHT22;47983;53.016;-2.260;2022-09-17T12:44:22;20.60;78.10
59307;DHT22;47983;53.016;-2.260;2022-09-17T12:51:59;20.90;77.70
59307;DHT22;47983;53.016;-2.260;2022-09-17T12:57:14;21.40;78.40
59307;DHT22;47983;53.016;-2.260;2022-09-17T12:59:49;21.70;76.70
59307;DHT22;47983;53.016;-2.260;2022-09-17T13:02:22;21.90;74.00
59307;DHT22;47983;53.016;-2.260;2022-09-17T13:12:51;22.80;73.20
59307;DHT22;47983;53.016;-2.260;2022-09-17T13:15:28;23.10;69.80
59307;DHT22;47983;53.016;-2.260;2022-09-17T13:23:33;23.30;70.50
59307;DHT22;47983;53.016;-2.260;2022-09-17T13:26:02;23.50;68.50
59307;DHT22;47983;53.016;-2.260;2022-09-17T13:28:40;23.50;68.40
59307;DHT22;47983;53.016;-2.260;2022-09-17T13:34:00;23.90;67.70
59307;DHT22;47983;53.016;-2.260;2022-09-17T13:36:41;23.90;67.70
59307;DHT22;47983;53.016;-2.260;2022-09-17T13:39:56;23.80;66.80
59307;DHT22;47983;53.016;-2.260;2022-09-17T13:42:04;23.60;66.40
59307;DHT22;47983;53.016;-2.260;2022-09-17T13:44:37;23.40;65.90
59307;DHT22;47983;53.016;-2.260;2022-09-17T13:49:45;22.10;66.10
59307;DHT22;47983;53.016;-2.260;2022-09-17T13:52:22;21.30;66.90
59307;DHT22;47983;53.016;-2.260;2022-09-17T13:54:55;20.60;68.30
59307;DHT22;47983;53.016;-2.260;2022-09-17T13:57:23;20.00;69.80
59307;DHT22;47983;53.016;-2.260;2022-09-17T13:59:52;19.50;71.10
59307;DHT22;47983;53.016;-2.260;2022-09-17T14:07:44;18.70;75.00
59307;DHT22;47983;53.016;-2.260;2022-09-17T14:15:30;18.20;74.90
59307;DHT22;47983;53.016;-2.260;2022-09-17T14:17:57;18.00;75.70
59307;DHT22;47983;53.016;-2.260;2022-09-17T14:20:24;18.00;76.60
59307;DHT22;47983;53.016;-2.260;2022-09-17T14:22:59;18.00;78.20
59307;DHT22;47983;53.016;-2.260;2022-09-17T14:25:38;18.00;78.30
59307;DHT22;47983;53.016;-2.260;2022-09-17T14:28:41;18.10;78.30
59307;DHT22;47983;53.016;-2.260;2022-09-17T14:31:00;18.20;78.10
59307;DHT22;47983;53.016;-2.260;2022-09-17T14:33:29;18.20;78.10
59307;DHT22;47983;53.016;-2.260;2022-09-17T14:36:07;18.10;78.10
59307;DHT22;47983;53.016;-2.260;2022-09-17T14:38:45;17.90;78.00
59307;DHT22;47983;53.016;-2.260;2022-09-17T14:43:55;17.60;79.80
59307;DHT22;47983;53.016;-2.260;2022-09-17T14:46:25;17.50;80.60
59307;DHT22;47983;53.016;-2.260;2022-09-17T14:48:54;17.40;80.60
59307;DHT22;47983;53.016;-2.260;2022-09-17T14:51:23;17.30;81.60
59307;DHT22;47983;53.016;-2.260;2022-09-17T14:56:40;17.00;81.80
59307;DHT22;47983;53.016;-2.260;2022-09-17T14:59:13;16.90;82.30
59307;DHT22;47983;53.016;-2.260;2022-09-17T15:01:45;16.90;82.90
59307;DHT22;47983;53.016;-2.260;2022-09-17T15:06:41;16.80;83.00
59307;DHT22;47983;53.016;-2.260;2022-09-17T15:09:16;16.70;83.70
59307;DHT22;47983;53.016;-2.260;2022-09-17T15:11:43;16.70;84.00
59307;DHT22;47983;53.016;-2.260;2022-09-17T15:14:14;16.70;83.80
59307;DHT22;47983;53.016;-2.260;2022-09-17T15:16:46;16.70;83.00
59307;DHT22;47983;53.016;-2.260;2022-09-17T15:19:17;16.70;82.60
59307;DHT22;47983;53.016;-2.260;2022-09-17T15:21:45;16.70;81.90
59307;DHT22;47983;53.016;-2.260;2022-09-17T15:27:12;16.60;83.00
59307;DHT22;47983;53.016;-2.260;2022-09-17T15:29:42;16.50;82.80
59307;DHT22;47983;53.016;-2.260;2022-09-17T15:32:11;16.40;82.30
59307;DHT22;47983;53.016;-2.260;2022-09-17T15:34:39;16.30;82.30
59307;DHT22;47983;53.016;-2.260;2022-09-17T15:37:20;16.20;83.10
59307;DHT22;47983;53.016;-2.260;2022-09-17T15:39:51;16.20;83.50
59307;DHT22;47983;53.016;-2.260;2022-09-17T15:42:27;16.10;84.20
59307;DHT22;47983;53.016;-2.260;2022-09-17T15:45:15;16.10;84.70
59307;DHT22;47983;53.016;-2.260;2022-09-17T15:47:48;16.00;84.20
59307;DHT22;47983;53.016;-2.260;2022-09-17T15:50:33;15.90;84.70
59307;DHT22;47983;53.016;-2.260;2022-09-17T15:55:44;15.90;85.80
59307;DHT22;47983;53.016;-2.260;2022-09-17T15:58:21;15.80;86.20
59307;DHT22;47983;53.016;-2.260;2022-09-17T16:08:47;15.40;87.40
59307;DHT22;47983;53.016;-2.260;2022-09-17T16:11:15;15.40;88.00
59307;DHT22;47983;53.016;-2.260;2022-09-17T16:13:49;15.40;88.90
59307;DHT22;47983;53.016;-2.260;2022-09-17T16:16:36;15.30;88.50
59307;DHT22;47983;53.016;-2.260;2022-09-17T16:19:04;15.30;89.10
59307;DHT22;47983;53.016;-2.260;2022-09-17T16:21:32;15.20;89.90
59307;DHT22;47983;53.016;-2.260;2022-09-17T16:24:00;15.30;90.10
59307;DHT22;47983;53.016;-2.260;2022-09-17T16:26:28;15.30;90.20
59307;DHT22;47983;53.016;-2.260;2022-09-17T16:28:58;15.30;90.40
59307;DHT22;47983;53.016;-2.260;2022-09-17T16:31:28;15.40;90.50
59307;DHT22;47983;53.016;-2.260;2022-09-17T16:33:55;15.30;90.40
59307;DHT22;47983;53.016;-2.260;2022-09-17T16:36:23;15.30;90.30
59307;DHT22;47983;53.016;-2.260;2022-09-17T16:38:50;15.30;90.30
59307;DHT22;47983;53.016;-2.260;2022-09-17T16:41:18;15.20;90.20
59307;DHT22;47983;53.016;-2.260;2022-09-17T16:43:45;15.10;90.40
59307;DHT22;47983;53.016;-2.260;2022-09-17T16:46:13;15.00;90.20
59307;DHT22;47983;53.016;-2.260;2022-09-17T16:48:41;14.90;90.30
59307;DHT22;47983;53.016;-2.260;2022-09-17T16:51:11;14.80;90.50
59307;DHT22;47983;53.016;-2.260;2022-09-17T16:53:39;14.70;90.90
59307;DHT22;47983;53.016;-2.260;2022-09-17T16:56:07;14.60;90.90
59307;DHT22;47983;53.016;-2.260;2022-09-17T16:58:35;14.50;90.90
59307;DHT22;47983;53.016;-2.260;2022-09-17T17:01:12;14.40;91.20
59307;DHT22;47983;53.016;-2.260;2022-09-17T17:03:41;14.40;91.10
59307;DHT22;47983;53.016;-2.260;2022-09-17T17:06:14;14.30;91.20
59307;DHT22;47983;53.016;-2.260;2022-09-17T17:08:42;14.20;91.40
59307;DHT22;47983;53.016;-2.260;2022-09-17T17:11:10;14.10;91.60
59307;DHT22;47983;53.016;-2.260;2022-09-17T17:13:37;14.10;91.70
59307;DHT22;47983;53.016;-2.260;2022-09-17T17:16:08;14.10;91.70
59307;DHT22;47983;53.016;-2.260;2022-09-17T17:18:36;14.10;91.80
59307;DHT22;47983;53.016;-2.260;2022-09-17T17:21:04;14.10;91.80
59307;DHT22;47983;53.016;-2.260;2022-09-17T17:23:32;14.00;91.90
59307;DHT22;47983;53.016;-2.260;2022-09-17T17:26:00;14.10;91.90
59307;DHT22;47983;53.016;-2.260;2022-09-17T17:28:29;14.10;91.90
59307;DHT22;47983;53.016;-2.260;2022-09-17T17:30:57;14.00;91.90
59307;DHT22;47983;53.016;-2.260;2022-09-17T17:33:25;14.00;92.20
59307;DHT22;47983;53.016;-2.260;2022-09-17T17:35:52;13.90;92.00
59307;DHT22;47983;53.016;-2.260;2022-09-17T17:38:20;13.80;92.00
59307;DHT22;47983;53.016;-2.260;2022-09-17T17:40:47;13.80;92.10
59307;DHT22;47983;53.016;-2.260;2022-09-17T17:43:14;13.70;92.40
59307;DHT22;47983;53.016;-2.260;2022-09-17T17:45:42;13.70;92.50
59307;DHT22;47983;53.016;-2.260;2022-09-17T17:48:10;13.70;92.60
59307;DHT22;47983;53.016;-2.260;2022-09-17T17:50:37;13.70;92.60
59307;DHT22;47983;53.016;-2.260;2022-09-17T17:53:05;13.60;92.90
59307;DHT22;47983;53.016;-2.260;2022-09-17T17:55:32;13.60;93.00
59307;DHT22;47983;53.016;-2.260;2022-09-17T17:58:00;13.50;93.20
59307;DHT22;47983;53.016;-2.260;2022-09-17T18:00:28;13.50;93.30
59307;DHT22;47983;53.016;-2.260;2022-09-17T18:02:55;13.50;93.30
59307;DHT22;47983;53.016;-2.260;2022-09-17T18:05:22;13.40;93.40
59307;DHT22;47983;53.016;-2.260;2022-09-17T18:07:50;13.30;93.60
59307;DHT22;47983;53.016;-2.260;2022-09-17T18:10:17;13.30;94.10
59307;DHT22;47983;53.016;-2.260;2022-09-17T18:12:45;13.20;94.40
59307;DHT22;47983;53.016;-2.260;2022-09-17T18:15:16;13.20;94.70
59307;DHT22;47983;53.016;-2.260;2022-09-17T18:17:44;13.20;94.70
59307;DHT22;47983;53.016;-2.260;2022-09-17T18:20:14;13.20;94.70
59307;DHT22;47983;53.016;-2.260;2022-09-17T18:22:42;13.10;94.70
59307;DHT22;47983;53.016;-2.260;2022-09-17T18:25:09;13.10;95.10
59307;DHT22;47983;53.016;-2.260;2022-09-17T18:27:36;13.60;95.40
59307;DHT22;47983;53.016;-2.260;2022-09-17T18:30:04;13.00;95.40
59307;DHT22;47983;53.016;-2.260;2022-09-17T18:32:32;13.10;95.60
59307;DHT22;47983;53.016;-2.260;2022-09-17T18:34:59;13.00;95.60
59307;DHT22;47983;53.016;-2.260;2022-09-17T18:37:27;13.00;95.90
59307;DHT22;47983;53.016;-2.260;2022-09-17T18:39:54;13.10;96.10
59307;DHT22;47983;53.016;-2.260;2022-09-17T18:42:25;13.00;96.00
59307;DHT22;47983;53.016;-2.260;2022-09-17T18:44:53;13.10;96.20
59307;DHT22;47983;53.016;-2.260;2022-09-17T18:47:23;13.00;96.30
59307;DHT22;47983;53.016;-2.260;2022-09-17T18:49:50;13.00;96.60
59307;DHT22;47983;53.016;-2.260;2022-09-17T18:52:18;13.00;96.70
59307;DHT22;47983;53.016;-2.260;2022-09-17T18:54:45;13.00;96.70
59307;DHT22;47983;53.016;-2.260;2022-09-17T18:57:13;13.00;96.80